sensor_id;sensor_type;location;lat;lon;timestamp;temperature;humidity
68922;DHT22;55959;51.244;5.724;2022-10-15T00:00:28;17.60;73.70
68922;DHT22;55959;51.244;5.724;2022-10-15T00:02:53;17.60;73.70
68922;DHT22;55959;51.244;5.724;2022-10-15T00:05:20;17.60;73.60
68922;DHT22;55959;51.244;5.724;2022-10-15T00:07:46;17.60;73.50
68922;DHT22;55959;51.244;5.724;2022-10-15T00:10:13;17.60;73.50
68922;DHT22;55959;51.244;5.724;2022-10-15T00:12:40;17.50;73.50
68922;DHT22;55959;51.244;5.724;2022-10-15T00:15:06;17.50;73.40
68922;DHT22;55959;51.244;5.724;2022-10-15T00:17:34;17.50;73.40
68922;DHT22;55959;51.244;5.724;2022-10-15T00:20:01;17.50;73.40
68922;DHT22;55959;51.244;5.724;2022-10-15T00:22:32;17.50;73.30
68922;DHT22;55959;51.244;5.724;2022-10-15T00:24:58;17.50;73.30
68922;DHT22;55959;51.244;5.724;2022-10-15T00:27:24;17.50;73.30
68922;DHT22;55959;51.244;5.724;2022-10-15T00:29:50;17.40;73.20
68922;DHT22;55959;51.244;5.724;2022-10-15T00:32:16;17.40;73.20
68922;DHT22;55959;51.244;5.724;2022-10-15T00:34:42;17.40;73.20
68922;DHT22;55959;51.244;5.724;2022-10-15T00:37:08;17.40;73.30
68922;DHT22;55959;51.244;5.724;2022-10-15T00:39:35;17.40;73.20
68922;DHT22;55959;51.244;5.724;2022-10-15T00:42:01;17.40;73.30
68922;DHT22;55959;51.244;5.724;2022-10-15T00:47:16;17.40;73.50
68922;DHT22;55959;51.244;5.724;2022-10-15T00:52:25;17.40;73.50
68922;DHT22;55959;51.244;5.724;2022-10-15T00:55:14;17.40;73.50
68922;DHT22;55959;51.244;5.724;2022-10-15T00:57:46;17.30;73.50
68922;DHT22;55959;51.244;5.724;2022-10-15T01:00:14;17.30;73.40
68922;DHT22;55959;51.244;5.724;2022-10-15T01:02:42;17.30;73.50
68922;DHT22;55959;51.244;5.724;2022-10-15T01:05:11;17.30;73.50
68922;DHT22;55959;51.244;5.724;2022-10-15T01:07:38;17.30;73.50
68922;DHT22;55959;51.244;5.724;2022-10-15T01:10:05;17.30;73.60
68922;DHT22;55959;51.244;5.724;2022-10-15T01:18:00;17.30;73.70
68922;DHT22;55959;51.244;5.724;2022-10-15T01:20:49;17.30;73.70
68922;DHT22;55959;51.244;5.724;2022-10-15T01:32:46;17.30;73.90
68922;DHT22;55959;51.244;5.724;2022-10-15T01:35:40;17.20;73.90
68922;DHT22;55959;51.244;5.724;2022-10-15T01:38:37;17.20;73.90
68922;DHT22;55959;51.244;5.724;2022-10-15T01:44:28;17.20;73.90
68922;DHT22;55959;51.244;5.724;2022-10-15T01:47:23;17.20;73.90
68922;DHT22;55959;51.244;5.724;2022-10-15T01:49:54;17.20;73.90
68922;DHT22;55959;51.244;5.724;2022-10-15T01:52:26;17.20;73.90
68922;DHT22;55959;51.244;5.724;2022-10-15T01:54:54;17.20;73.90
68922;DHT22;55959;51.244;5.724;2022-10-15T01:57:23;17.20;73.80
68922;DHT22;55959;51.244;5.724;2022-10-15T01:59:50;17.20;73.90
68922;DHT22;55959;51.244;5.724;2022-10-15T02:02:17;17.20;73.70
68922;DHT22;55959;51.244;5.724;2022-10-15T02:04:42;17.20;73.70
68922;DHT22;55959;51.244;5.724;2022-10-15T02:07:12;17.20;73.70
68922;DHT22;55959;51.244;5.724;2022-10-15T02:09:51;17.20;73.80
68922;DHT22;55959;51.244;5.724;2022-10-15T02:15:23;17.20;74.10
68922;DHT22;55959;51.244;5.724;2022-10-15T02:23:34;17.10;74.40
68922;DHT22;55959;51.244;5.724;2022-10-15T02:26:04;17.10;74.60
68922;DHT22;55959;51.244;5.724;2022-10-15T02:28:33;17.10;74.70
68922;DHT22;55959;51.244;5.724;2022-10-15T02:31:02;17.10;74.70
68922;DHT22;55959;51.244;5.724;2022-10-15T02:33:31;17.10;74.70
68922;DHT22;55959;51.244;5.724;2022-10-15T02:35:58;17.20;74.90
68922;DHT22;55959;51.244;5.724;2022-10-15T02:38:26;17.20;74.90
68922;DHT22;55959;51.244;5.724;2022-10-15T02:40:53;17.20;74.90
68922;DHT22;55959;51.244;5.724;2022-10-15T02:43:20;17.20;74.90
68922;DHT22;55959;51.244;5.724;2022-10-15T02:45:48;17.20;74.90
68922;DHT22;55959;51.244;5.724;2022-10-15T02:48:14;17.20;74.90
68922;DHT22;55959;51.244;5.724;2022-10-15T02:50:40;17.20;74.90
68922;DHT22;55959;51.244;5.724;2022-10-15T02:53:06;17.20;74.90
68922;DHT22;55959;51.244;5.724;2022-10-15T02:55:32;17.20;74.90
68922;DHT22;55959;51.244;5.724;2022-10-15T02:57:58;17.20;74.90
68922;DHT22;55959;51.244;5.724;2022-10-15T03:00:24;17.20;74.90
68922;DHT22;55959;51.244;5.724;2022-10-15T03:02:49;17.20;74.80
68922;DHT22;55959;51.244;5.724;2022-10-15T03:05:15;17.20;74.80
68922;DHT22;55959;51.244;5.724;2022-10-15T03:07:41;17.20;74.70
68922;DHT22;55959;51.244;5.724;2022-10-15T03:10:07;17.20;74.70
68922;DHT22;55959;51.244;5.724;2022-10-15T03:12:33;17.20;74.70
68922;DHT22;55959;51.244;5.724;2022-10-15T03:14:59;17.20;75.50
68922;DHT22;55959;51.244;5.724;2022-10-15T03:17:25;17.20;74.70
68922;DHT22;55959;51.244;5.724;2022-10-15T03:19:51;17.20;74.80
68922;DHT22;55959;51.244;5.724;2022-10-15T03:22:16;17.20;74.80
68922;DHT22;55959;51.244;5.724;2022-10-15T03:24:42;17.20;74.80
68922;DHT22;55959;51.244;5.724;2022-10-15T03:27:08;17.20;74.90
68922;DHT22;55959;51.244;5.724;2022-10-15T03:29:33;17.20;74.90
68922;DHT22;55959;51.244;5.724;2022-10-15T03:31:59;17.20;75.00
68922;DHT22;55959;51.244;5.724;2022-10-15T03:34:25;17.20;75.10
68922;DHT22;55959;51.244;5.724;2022-10-15T03:36:51;17.20;75.10
68922;DHT22;55959;51.244;5.724;2022-10-15T03:39:16;17.20;75.20
68922;DHT22;55959;51.244;5.724;2022-10-15T03:41:42;17.20;75.20
68922;DHT22;55959;51.244;5.724;2022-10-15T03:44:09;17.20;75.20
68922;DHT22;55959;51.244;5.724;2022-10-15T03:46:35;17.20;75.30
68922;DHT22;55959;51.244;5.724;2022-10-15T03:49:01;17.20;75.30
68922;DHT22;55959;51.244;5.724;2022-10-15T03:51:27;17.20;75.50
68922;DHT22;55959;51.244;5.724;2022-10-15T03:53:53;17.20;75.60
68922;DHT22;55959;51.244;5.724;2022-10-15T03:56:19;17.20;75.60
68922;DHT22;55959;51.244;5.724;2022-10-15T03:58:45;17.20;75.70
68922;DHT22;55959;51.244;5.724;2022-10-15T04:01:13;17.20;75.70
68922;DHT22;55959;51.244;5.724;2022-10-15T04:03:40;17.20;75.80
68922;DHT22;55959;51.244;5.724;2022-10-15T04:06:06;17.20;75.90
68922;DHT22;55959;51.244;5.724;2022-10-15T04:08:32;17.20;75.90
68922;DHT22;55959;51.244;5.724;2022-10-15T04:10:58;17.20;76.00
68922;DHT22;55959;51.244;5.724;2022-10-15T04:13:25;17.20;76.10
68922;DHT22;55959;51.244;5.724;2022-10-15T04:15:52;17.20;76.10
68922;DHT22;55959;51.244;5.724;2022-10-15T04:18:17;17.20;76.10
68922;DHT22;55959;51.244;5.724;2022-10-15T04:20:49;17.20;76.10
68922;DHT22;55959;51.244;5.724;2022-10-15T04:23:16;17.20;76.20
68922;DHT22;55959;51.244;5.724;2022-10-15T04:25:42;17.20;76.20
68922;DHT22;55959;51.244;5.724;2022-10-15T04:28:07;17.20;77.10
68922;DHT22;55959;51.244;5.724;2022-10-15T04:30:33;17.20;76.20
68922;DHT22;55959;51.244;5.724;2022-10-15T04:32:59;17.20;76.20
68922;DHT22;55959;51.244;5.724;2022-10-15T04:35:25;17.30;76.30
68922;DHT22;55959;51.244;5.724;2022-10-15T04:37:51;17.30;76.20
68922;DHT22;55959;51.244;5.724;2022-10-15T04:40:17;17.20;77.00
68922;DHT22;55959;51.244;5.724;2022-10-15T04:42:44;17.30;76.10
68922;DHT22;55959;51.244;5.724;2022-10-15T04:45:10;17.30;76.20
68922;DHT22;55959;51.244;5.724;2022-10-15T04:47:36;17.30;76.10
68922;DHT22;55959;51.244;5.724;2022-10-15T04:50:01;17.20;76.10
68922;DHT22;55959;51.244;5.724;2022-10-15T04:52:27;17.20;76.10
68922;DHT22;55959;51.244;5.724;2022-10-15T04:54:53;17.30;76.20
68922;DHT22;55959;51.244;5.724;2022-10-15T04:57:19;17.30;76.30
68922;DHT22;55959;51.244;5.724;2022-10-15T04:59:45;17.30;76.30
68922;DHT22;55959;51.244;5.724;2022-10-15T05:02:10;17.30;76.30
68922;DHT22;55959;51.244;5.724;2022-10-15T05:04:36;17.30;76.40
68922;DHT22;55959;51.244;5.724;2022-10-15T05:07:02;17.30;76.40
68922;DHT22;55959;51.244;5.724;2022-10-15T05:09:28;17.30;76.40
68922;DHT22;55959;51.244;5.724;2022-10-15T05:11:54;17.30;76.50
68922;DHT22;55959;51.244;5.724;2022-10-15T05:14:20;17.30;76.50
68922;DHT22;55959;51.244;5.724;2022-10-15T05:16:46;17.30;76.50
68922;DHT22;55959;51.244;5.724;2022-10-15T05:19:12;17.30;76.50
68922;DHT22;55959;51.244;5.724;2022-10-15T05:21:38;17.30;76.50
68922;DHT22;55959;51.244;5.724;2022-10-15T05:24:04;17.30;76.50
68922;DHT22;55959;51.244;5.724;2022-10-15T05:26:30;17.30;76.50
68922;DHT22;55959;51.244;5.724;2022-10-15T05:28:58;17.30;76.50
68922;DHT22;55959;51.244;5.724;2022-10-15T05:31:27;17.30;76.50
68922;DHT22;55959;51.244;5.724;2022-10-15T05:33:54;17.30;76.50
68922;DHT22;55959;51.244;5.724;2022-10-15T05:36:30;17.30;76.60
68922;DHT22;55959;51.244;5.724;2022-10-15T05:39:01;17.30;76.50
68922;DHT22;55959;51.244;5.724;2022-10-15T05:41:29;17.30;76.50
68922;DHT22;55959;51.244;5.724;2022-10-15T05:43:56;17.40;76.60
68922;DHT22;55959;51.244;5.724;2022-10-15T05:46:23;17.40;76.60
68922;DHT22;55959;51.244;5.724;2022-10-15T05:48:50;17.40;76.50
68922;DHT22;55959;51.244;5.724;2022-10-15T05:51:17;17.40;76.50
68922;DHT22;55959;51.244;5.724;2022-10-15T05:53:43;17.40;76.40
68922;DHT22;55959;51.244;5.724;2022-10-15T05:56:14;17.40;76.30
68922;DHT22;55959;51.244;5.724;2022-10-15T05:58:40;17.40;76.30
68922;DHT22;55959;51.244;5.724;2022-10-15T06:01:08;17.40;76.30
68922;DHT22;55959;51.244;5.724;2022-10-15T06:03:36;17.40;76.20
68922;DHT22;55959;51.244;5.724;2022-10-15T06:06:02;17.40;76.20
68922;DHT22;55959;51.244;5.724;2022-10-15T06:08:29;17.40;76.10
68922;DHT22;55959;51.244;5.724;2022-10-15T06:10:55;17.40;76.10
68922;DHT22;55959;51.244;5.724;2022-10-15T06:13:26;17.40;76.00
68922;DHT22;55959;51.244;5.724;2022-10-15T06:15:52;17.40;75.90
68922;DHT22;55959;51.244;5.724;2022-10-15T06:18:18;17.40;75.90
68922;DHT22;55959;51.244;5.724;2022-10-15T06:20:44;17.40;75.90
68922;DHT22;55959;51.244;5.724;2022-10-15T06:23:15;17.40;75.90
68922;DHT22;55959;51.244;5.724;2022-10-15T06:25:41;17.40;75.80
68922;DHT22;55959;51.244;5.724;2022-10-15T06:28:06;17.40;75.90
68922;DHT22;55959;51.244;5.724;2022-10-15T06:30:33;17.40;75.80
68922;DHT22;55959;51.244;5.724;2022-10-15T06:32:59;17.40;75.70
68922;DHT22;55959;51.244;5.724;2022-10-15T06:35:26;17.40;75.80
68922;DHT22;55959;51.244;5.724;2022-10-15T06:37:54;17.40;75.90
68922;DHT22;55959;51.244;5.724;2022-10-15T06:40:20;17.40;75.90
68922;DHT22;55959;51.244;5.724;2022-10-15T06:42:46;17.40;75.90
68922;DHT22;55959;51.244;5.724;2022-10-15T06:45:12;17.40;75.90
68922;DHT22;55959;51.244;5.724;2022-10-15T06:47:41;17.40;75.90
68922;DHT22;55959;51.244;5.724;2022-10-15T06:50:07;17.40;76.00
68922;DHT22;55959;51.244;5.724;2022-10-15T06:52:33;17.40;76.10
68922;DHT22;55959;51.244;5.724;2022-10-15T06:55:00;17.40;76.10
68922;DHT22;55959;51.244;5.724;2022-10-15T06:57:28;17.50;76.20
68922;DHT22;55959;51.244;5.724;2022-10-15T06:59:54;17.40;76.20
68922;DHT22;55959;51.244;5.724;2022-10-15T07:02:20;17.40;76.10
68922;DHT22;55959;51.244;5.724;2022-10-15T07:04:46;17.40;76.20
68922;DHT22;55959;51.244;5.724;2022-10-15T07:07:12;17.50;76.30
68922;DHT22;55959;51.244;5.724;2022-10-15T07:09:38;17.50;76.20
68922;DHT22;55959;51.244;5.724;2022-10-15T07:12:05;17.40;76.10
68922;DHT22;55959;51.244;5.724;2022-10-15T07:14:31;17.50;76.30
68922;DHT22;55959;51.244;5.724;2022-10-15T07:16:57;17.50;76.30
68922;DHT22;55959;51.244;5.724;2022-10-15T07:19:23;17.50;76.30
68922;DHT22;55959;51.244;5.724;2022-10-15T07:21:49;17.50;76.30
68922;DHT22;55959;51.244;5.724;2022-10-15T07:24:15;17.50;76.30
68922;DHT22;55959;51.244;5.724;2022-10-15T07:26:41;17.50;76.40
68922;DHT22;55959;51.244;5.724;2022-10-15T07:29:07;17.50;76.30
68922;DHT22;55959;51.244;5.724;2022-10-15T07:31:32;17.50;76.30
68922;DHT22;55959;51.244;5.724;2022-10-15T07:33:58;17.50;76.40
68922;DHT22;55959;51.244;5.724;2022-10-15T07:36:24;17.60;76.50
68922;DHT22;55959;51.244;5.724;2022-10-15T07:38:50;17.60;76.50
68922;DHT22;55959;51.244;5.724;2022-10-15T07:41:16;17.60;76.50
68922;DHT22;55959;51.244;5.724;2022-10-15T07:43:42;17.60;76.40
68922;DHT22;55959;51.244;5.724;2022-10-15T07:46:09;17.70;76.50
68922;DHT22;55959;51.244;5.724;2022-10-15T07:48:34;17.70;76.50
68922;DHT22;55959;51.244;5.724;2022-10-15T07:51:03;17.70;76.50
68922;DHT22;55959;51.244;5.724;2022-10-15T07:53:30;17.70;76.50
68922;DHT22;55959;51.244;5.724;2022-10-15T07:56:02;17.70;76.40
68922;DHT22;55959;51.244;5.724;2022-10-15T07:58:30;17.70;76.40
68922;DHT22;55959;51.244;5.724;2022-10-15T08:00:59;17.80;76.40
68922;DHT22;55959;51.244;5.724;2022-10-15T08:03:26;17.80;76.40
68922;DHT22;55959;51.244;5.724;2022-10-15T08:05:52;17.80;76.40
68922;DHT22;55959;51.244;5.724;2022-10-15T08:08:20;17.90;76.40
68922;DHT22;55959;51.244;5.724;2022-10-15T08:10:46;17.90;76.40
68922;DHT22;55959;51.244;5.724;2022-10-15T08:13:12;17.90;76.40
68922;DHT22;55959;51.244;5.724;2022-10-15T08:15:41;18.00;76.50
68922;DHT22;55959;51.244;5.724;2022-10-15T08:18:08;17.90;76.40
68922;DHT22;55959;51.244;5.724;2022-10-15T08:20:38;18.00;77.30
68922;DHT22;55959;51.244;5.724;2022-10-15T08:23:05;18.00;76.40
68922;DHT22;55959;51.244;5.724;2022-10-15T08:25:31;18.00;76.40
68922;DHT22;55959;51.244;5.724;2022-10-15T08:27:57;18.00;76.40
68922;DHT22;55959;51.244;5.724;2022-10-15T08:30:24;18.00;76.40
68922;DHT22;55959;51.244;5.724;2022-10-15T08:32:50;18.10;76.50
68922;DHT22;55959;51.244;5.724;2022-10-15T08:35:16;18.10;76.50
68922;DHT22;55959;51.244;5.724;2022-10-15T08:37:41;18.10;76.50
68922;DHT22;55959;51.244;5.724;2022-10-15T08:40:09;18.10;76.60
68922;DHT22;55959;51.244;5.724;2022-10-15T08:42:43;18.20;76.60
68922;DHT22;55959;51.244;5.724;2022-10-15T08:45:14;18.20;76.70
68922;DHT22;55959;51.244;5.724;2022-10-15T08:50:37;18.30;76.70
68922;DHT22;55959;51.244;5.724;2022-10-15T08:53:07;18.30;76.80
68922;DHT22;55959;51.244;5.724;2022-10-15T08:55:42;18.40;76.80
68922;DHT22;55959;51.244;5.724;2022-10-15T09:00:57;18.40;76.80
68922;DHT22;55959;51.244;5.724;2022-10-15T09:03:57;18.50;76.80
68922;DHT22;55959;51.244;5.724;2022-10-15T09:06:43;18.50;76.70
68922;DHT22;55959;51.244;5.724;2022-10-15T09:14:58;18.60;76.80
68922;DHT22;55959;51.244;5.724;2022-10-15T09:17:26;18.60;76.70
68922;DHT22;55959;51.244;5.724;2022-10-15T09:19:56;18.70;77.60
68922;DHT22;55959;51.244;5.724;2022-10-15T09:22:28;18.70;76.70
68922;DHT22;55959;51.244;5.724;2022-10-15T09:24:55;18.70;76.60
68922;DHT22;55959;51.244;5.724;2022-10-15T09:33:16;18.80;76.30
68922;DHT22;55959;51.244;5.724;2022-10-15T09:42:11;18.80;76.30
68922;DHT22;55959;51.244;5.724;2022-10-15T09:44:58;18.90;76.40
68922;DHT22;55959;51.244;5.724;2022-10-15T09:47:28;18.90;76.30
68922;DHT22;55959;51.244;5.724;2022-10-15T09:49:56;18.90;76.30
68922;DHT22;55959;51.244;5.724;2022-10-15T09:55:46;18.90;76.30
68922;DHT22;55959;51.244;5.724;2022-10-15T09:58:00;18.90;76.40
68922;DHT22;55959;51.244;5.724;2022-10-15T10:03:18;19.00;76.50
68922;DHT22;55959;51.244;5.724;2022-10-15T10:05:44;19.00;76.40
68922;DHT22;55959;51.244;5.724;2022-10-15T10:10:44;19.10;76.50
68922;DHT22;55959;51.244;5.724;2022-10-15T10:13:26;19.10;76.40
68922;DHT22;55959;51.244;5.724;2022-10-15T10:15:54;19.10;76.40
68922;DHT22;55959;51.244;5.724;2022-10-15T10:18:23;19.20;76.40
68922;DHT22;55959;51.244;5.724;2022-10-15T10:20:54;19.20;76.40
68922;DHT22;55959;51.244;5.724;2022-10-15T10:23:33;19.30;76.40
68922;DHT22;55959;51.244;5.724;2022-10-15T10:26:03;19.30;76.40
68922;DHT22;55959;51.244;5.724;2022-10-15T10:28:33;19.30;76.40
68922;DHT22;55959;51.244;5.724;2022-10-15T10:31:04;19.40;76.40
68922;DHT22;55959;51.244;5.724;2022-10-15T10:33:35;19.40;76.40
68922;DHT22;55959;51.244;5.724;2022-10-15T10:36:07;19.40;76.30
68922;DHT22;55959;51.244;5.724;2022-10-15T10:44:40;19.50;76.40
68922;DHT22;55959;51.244;5.724;2022-10-15T10:49:44;19.60;76.40
68922;DHT22;55959;51.244;5.724;2022-10-15T10:52:31;19.60;76.40
68922;DHT22;55959;51.244;5.724;2022-10-15T10:55:20;19.60;76.50
68922;DHT22;55959;51.244;5.724;2022-10-15T10:57:55;19.70;76.70
68922;DHT22;55959;51.244;5.724;2022-10-15T11:02:57;19.70;76.80
68922;DHT22;55959;51.244;5.724;2022-10-15T11:05:27;19.80;76.90
68922;DHT22;55959;51.244;5.724;2022-10-15T11:11:16;19.80;77.00
68922;DHT22;55959;51.244;5.724;2022-10-15T11:37:29;20.20;77.20
68922;DHT22;55959;51.244;5.724;2022-10-15T11:43:40;20.30;77.00
68922;DHT22;55959;51.244;5.724;2022-10-15T11:49:20;20.40;77.00
68922;DHT22;55959;51.244;5.724;2022-10-15T11:57:15;20.50;76.80
68922;DHT22;55959;51.244;5.724;2022-10-15T11:59:51;20.60;77.00
68922;DHT22;55959;51.244;5.724;2022-10-15T12:02:29;20.60;77.10
68922;DHT22;55959;51.244;5.724;2022-10-15T12:07:40;20.70;77.20
68922;DHT22;55959;51.244;5.724;2022-10-15T12:16:03;20.80;77.10
68922;DHT22;55959;51.244;5.724;2022-10-15T12:18:51;20.90;77.10
68922;DHT22;55959;51.244;5.724;2022-10-15T12:29:49;21.00;76.80
68922;DHT22;55959;51.244;5.724;2022-10-15T12:35:19;21.10;76.60
68922;DHT22;55959;51.244;5.724;2022-10-15T12:37:47;21.20;76.40
68922;DHT22;55959;51.244;5.724;2022-10-15T12:40:29;21.20;76.20
68922;DHT22;55959;51.244;5.724;2022-10-15T12:42:56;21.20;76.10
68922;DHT22;55959;51.244;5.724;2022-10-15T12:45:35;21.30;75.90
68922;DHT22;55959;51.244;5.724;2022-10-15T12:50:30;21.30;75.50
68922;DHT22;55959;51.244;5.724;2022-10-15T12:58:54;21.50;74.80
68922;DHT22;55959;51.244;5.724;2022-10-15T13:14:16;21.50;74.40
68922;DHT22;55959;51.244;5.724;2022-10-15T13:16:53;21.50;74.90
68922;DHT22;55959;51.244;5.724;2022-10-15T13:19:27;21.60;74.00
68922;DHT22;55959;51.244;5.724;2022-10-15T13:21:55;21.60;73.80
68922;DHT22;55959;51.244;5.724;2022-10-15T13:24:39;21.60;73.60
68922;DHT22;55959;51.244;5.724;2022-10-15T13:27:18;21.60;73.30
68922;DHT22;55959;51.244;5.724;2022-10-15T13:29:59;21.60;73.20
68922;DHT22;55959;51.244;5.724;2022-10-15T13:32:29;21.60;73.20
68922;DHT22;55959;51.244;5.724;2022-10-15T13:34:57;21.60;73.30
68922;DHT22;55959;51.244;5.724;2022-10-15T13:37:31;21.70;73.70
68922;DHT22;55959;51.244;5.724;2022-10-15T13:40:01;21.70;74.10
68922;DHT22;55959;51.244;5.724;2022-10-15T13:42:28;21.70;74.20
68922;DHT22;55959;51.244;5.724;2022-10-15T13:47:48;21.80;74.40
68922;DHT22;55959;51.244;5.724;2022-10-15T13:50:30;21.80;74.20
68922;DHT22;55959;51.244;5.724;2022-10-15T13:58:53;21.90;74.20
68922;DHT22;55959;51.244;5.724;2022-10-15T14:01:21;21.90;74.20
68922;DHT22;55959;51.244;5.724;2022-10-15T14:06:24;22.00;74.20
68922;DHT22;55959;51.244;5.724;2022-10-15T14:09:00;22.00;74.10
68922;DHT22;55959;51.244;5.724;2022-10-15T14:11:36;22.00;74.10
68922;DHT22;55959;51.244;5.724;2022-10-15T14:17:07;22.00;73.60
68922;DHT22;55959;51.244;5.724;2022-10-15T14:19:37;22.10;73.50
68922;DHT22;55959;51.244;5.724;2022-10-15T14:22:05;22.10;74.20
68922;DHT22;55959;51.244;5.724;2022-10-15T14:24:38;22.10;73.30
68922;DHT22;55959;51.244;5.724;2022-10-15T14:27:12;22.10;74.00
68922;DHT22;55959;51.244;5.724;2022-10-15T14:29:45;22.20;73.10
68922;DHT22;55959;51.244;5.724;2022-10-15T14:32:27;22.20;73.00
68922;DHT22;55959;51.244;5.724;2022-10-15T14:40:30;22.20;72.70
68922;DHT22;55959;51.244;5.724;2022-10-15T14:43:16;22.20;72.10
68922;DHT22;55959;51.244;5.724;2022-10-15T14:45:55;22.20;71.20
68922;DHT22;55959;51.244;5.724;2022-10-15T14:48:31;22.10;69.70
68922;DHT22;55959;51.244;5.724;2022-10-15T14:51:02;22.10;69.20
68922;DHT22;55959;51.244;5.724;2022-10-15T14:53:37;22.10;69.10
68922;DHT22;55959;51.244;5.724;2022-10-15T14:56:15;22.10;68.80
68922;DHT22;55959;51.244;5.724;2022-10-15T14:58:48;22.10;68.00
68922;DHT22;55959;51.244;5.724;2022-10-15T15:01:19;22.10;67.80
68922;DHT22;55959;51.244;5.724;2022-10-15T15:03:52;22.10;67.10
68922;DHT22;55959;51.244;5.724;2022-10-15T15:06:19;22.10;66.60
68922;DHT22;55959;51.244;5.724;2022-10-15T15:08:45;22.10;65.90
68922;DHT22;55959;51.244;5.724;2022-10-15T15:11:17;22.00;65.10
68922;DHT22;55959;51.244;5.724;2022-10-15T15:13:45;22.10;64.40
68922;DHT22;55959;51.244;5.724;2022-10-15T15:16:12;22.00;63.90
68922;DHT22;55959;51.244;5.724;2022-10-15T15:18:40;22.00;63.60
68922;DHT22;55959;51.244;5.724;2022-10-15T15:21:15;22.00;63.20
68922;DHT22;55959;51.244;5.724;2022-10-15T15:23:44;22.00;63.30
68922;DHT22;55959;51.244;5.724;2022-10-15T15:26:11;22.00;63.50
68922;DHT22;55959;51.244;5.724;2022-10-15T15:28:37;22.00;63.80
68922;DHT22;55959;51.244;5.724;2022-10-15T15:31:05;22.00;63.60
68922;DHT22;55959;51.244;5.724;2022-10-15T15:33:33;22.00;63.30
68922;DHT22;55959;51.244;5.724;2022-10-15T15:36:16;21.90;63.30
68922;DHT22;55959;51.244;5.724;2022-10-15T15:38:43;21.90;63.30
68922;DHT22;55959;51.244;5.724;2022-10-15T15:41:16;21.90;62.70
68922;DHT22;55959;51.244;5.724;2022-10-15T15:43:44;21.90;62.70
68922;DHT22;55959;51.244;5.724;2022-10-15T15:46:10;21.90;63.20
68922;DHT22;55959;51.244;5.724;2022-10-15T15:48:37;21.80;62.00
68922;DHT22;55959;51.244;5.724;2022-10-15T15:53:46;21.90;61.20
68922;DHT22;55959;51.244;5.724;2022-10-15T15:56:12;21.80;61.00
68922;DHT22;55959;51.244;5.724;2022-10-15T15:58:38;21.80;61.00
68922;DHT22;55959;51.244;5.724;2022-10-15T16:01:04;21.80;60.60
68922;DHT22;55959;51.244;5.724;2022-10-15T16:03:30;21.80;60.50
68922;DHT22;55959;51.244;5.724;2022-10-15T16:05:55;21.80;60.60
68922;DHT22;55959;51.244;5.724;2022-10-15T16:08:21;21.80;60.10
68922;DHT22;55959;51.244;5.724;2022-10-15T16:10:47;21.80;59.80
68922;DHT22;55959;51.244;5.724;2022-10-15T16:13:12;21.80;59.60
68922;DHT22;55959;51.244;5.724;2022-10-15T16:15:38;21.70;59.30
68922;DHT22;55959;51.244;5.724;2022-10-15T16:18:04;21.70;59.20
68922;DHT22;55959;51.244;5.724;2022-10-15T16:20:30;21.70;59.20
68922;DHT22;55959;51.244;5.724;2022-10-15T16:22:55;21.70;59.20
68922;DHT22;55959;51.244;5.724;2022-10-15T16:25:21;21.60;59.20
68922;DHT22;55959;51.244;5.724;2022-10-15T16:27:47;21.60;59.10
68922;DHT22;55959;51.244;5.724;2022-10-15T16:30:14;21.60;59.20
68922;DHT22;55959;51.244;5.724;2022-10-15T16:32:40;21.60;59.10
68922;DHT22;55959;51.244;5.724;2022-10-15T16:35:07;21.50;59.70
68922;DHT22;55959;51.244;5.724;2022-10-15T16:37:33;21.50;59.30
68922;DHT22;55959;51.244;5.724;2022-10-15T16:39:59;21.40;59.40
68922;DHT22;55959;51.244;5.724;2022-10-15T16:42:25;21.40;59.40
68922;DHT22;55959;51.244;5.724;2022-10-15T16:44:52;21.30;59.50
68922;DHT22;55959;51.244;5.724;2022-10-15T16:47:18;21.30;60.30
68922;DHT22;55959;51.244;5.724;2022-10-15T16:49:45;21.30;59.60
68922;DHT22;55959;51.244;5.724;2022-10-15T16:52:12;21.20;59.70
68922;DHT22;55959;51.244;5.724;2022-10-15T16:54:37;21.20;59.80
68922;DHT22;55959;51.244;5.724;2022-10-15T16:57:03;21.10;59.90
68922;DHT22;55959;51.244;5.724;2022-10-15T16:59:29;21.10;59.90
68922;DHT22;55959;51.244;5.724;2022-10-15T17:01:55;21.00;60.00
68922;DHT22;55959;51.244;5.724;2022-10-15T17:04:20;21.00;60.10
68922;DHT22;55959;51.244;5.724;2022-10-15T17:06:46;20.90;60.20
68922;DHT22;55959;51.244;5.724;2022-10-15T17:09:12;20.90;60.30
68922;DHT22;55959;51.244;5.724;2022-10-15T17:11:40;20.80;60.40
68922;DHT22;55959;51.244;5.724;2022-10-15T17:14:10;20.80;60.60
68922;DHT22;55959;51.244;5.724;2022-10-15T17:16:38;20.70;60.60
68922;DHT22;55959;51.244;5.724;2022-10-15T17:19:12;20.70;60.70
68922;DHT22;55959;51.244;5.724;2022-10-15T17:21:41;20.60;60.80
68922;DHT22;55959;51.244;5.724;2022-10-15T17:24:09;20.60;61.00
68922;DHT22;55959;51.244;5.724;2022-10-15T17:26:38;20.50;60.90
68922;DHT22;55959;51.244;5.724;2022-10-15T17:29:07;20.50;61.00
68922;DHT22;55959;51.244;5.724;2022-10-15T17:31:45;20.40;61.00
68922;DHT22;55959;51.244;5.724;2022-10-15T17:34:12;20.40;61.20
68922;DHT22;55959;51.244;5.724;2022-10-15T17:36:42;20.30;61.20
68922;DHT22;55959;51.244;5.724;2022-10-15T17:39:14;20.30;61.40
68922;DHT22;55959;51.244;5.724;2022-10-15T17:41:41;20.20;61.40
68922;DHT22;55959;51.244;5.724;2022-10-15T17:44:07;20.20;61.60
68922;DHT22;55959;51.244;5.724;2022-10-15T17:46:35;20.10;61.60
68922;DHT22;55959;51.244;5.724;2022-10-15T17:49:01;20.10;61.80
68922;DHT22;55959;51.244;5.724;2022-10-15T17:51:30;20.00;61.90
68922;DHT22;55959;51.244;5.724;2022-10-15T17:53:57;20.00;62.00
68922;DHT22;55959;51.244;5.724;2022-10-15T17:56:29;19.90;62.10
68922;DHT22;55959;51.244;5.724;2022-10-15T17:58:58;19.90;62.20
68922;DHT22;55959;51.244;5.724;2022-10-15T18:01:29;19.90;62.30
68922;DHT22;55959;51.244;5.724;2022-10-15T18:03:56;19.80;62.50
68922;DHT22;55959;51.244;5.724;2022-10-15T18:06:23;19.80;62.70
68922;DHT22;55959;51.244;5.724;2022-10-15T18:08:50;19.80;62.80
68922;DHT22;55959;51.244;5.724;2022-10-15T18:11:27;19.80;63.00
68922;DHT22;55959;51.244;5.724;2022-10-15T18:13:54;19.70;63.90
68922;DHT22;55959;51.244;5.724;2022-10-15T18:16:20;19.70;63.10
68922;DHT22;55959;51.244;5.724;2022-10-15T18:18:46;19.70;63.20
68922;DHT22;55959;51.244;5.724;2022-10-15T18:21:17;19.60;63.30
68922;DHT22;55959;51.244;5.724;2022-10-15T18:23:43;19.60;63.40
68922;DHT22;55959;51.244;5.724;2022-10-15T18:26:12;19.60;63.40
68922;DHT22;55959;51.244;5.724;2022-10-15T18:28:44;19.60;63.60
68922;DHT22;55959;51.244;5.724;2022-10-15T18:31:11;19.50;63.60
68922;DHT22;55959;51.244;5.724;2022-10-15T18:33:39;19.50;63.60
68922;DHT22;55959;51.244;5.724;2022-10-15T18:36:08;19.50;63.70
68922;DHT22;55959;51.244;5.724;2022-10-15T18:38:37;19.40;63.70